Geff, Illinois
Current Conditions -  °F | °C
As of 12:55 PM on Friday 28 Nov 2014 (Local Time) from KFWC Reporting Station
Clear Clear  
Wind Chill: 31°   Ceiling: Unl
Heat Index: 39°   Visibility: 10mi
Dew Point: 32°   Wind: 14mph
Humidity: 76%   Direction: 160°SSE
Pressure: 30.16"   Gusts: 23mph
Location:  38.44°N, 88.4°W
Report Text: KFWC 281855Z AUTO 16012G20KT 10SM CLR 04/00 A3016 RMK AO1 T00380000
Loading
Personal Weather Stations






























Interactive Weather Map New forecast layout! Learn more

10-Day Weather Forecast

Advertisements
Track Severe Weather on mobile